Decoded Metar for LRAR (ARAD in ROMANIA) (IATA:ARW) | Meteo·Mobile Aviation Weather
aviador You're here:

LRAR Decoded Metar

ARAD in ROMANIA
Report Time2018-10-23 22:30:00
UTC Time2018-10-23 22:40:41
Flight Rules vfr VFR
Wind230° at 08 kt
W.Decomp.*RWY 27: 5.8 kt HW 5.6 kt LCW
W.Rank230° ranks 26
Current wind is above 230° avg. (5.6)
Visibility9999 m
Phenomena:N/A
Clouds:Scattered 061 Hf
Expected CloudBase > 2,000 ft AGL from Temp-Dew spread
CeilingNone
Temp12°C (ISA -2)
Dew Point07°C (72% RH)
AAT8.4°C
QNH1011 hPa
Density Alt328 ft
Elevation387 ft
Report Wrong Elevation
Raw Report
METAR LRAR 232230Z AUTO 23008KT 9999 SCT061/// 12/07 Q1011 RERA=

Extra information for LRAR:More info

Metar Taf Metar & Taf Last 4 Metars F.Rules Stats Wind Profile Meteogram Temp Stats Airport Information Weather charts Add Link Nearby VenuesMetar ALERT Operation Metar Decoded Social comments